Archival Weather

Fayette Rgnl Air Cntr Arp

Fayette Rgnl Air Cntr Arp, Texas (K3T5)

Report from: Thursday, September 22, 2022 6:15 AM CDT
Current time: Saturday, February 4, 2023 12:42 AM CST

Current weather
Weather history
Weather forecast

Present weatherMist
Temperature19.7°C (67.5°F)
Dew point19.6°C (67.3°F)
Winds Calm
Visibility2.5 mi. (4 km)
Clouds Sky clear
Altimeter29.99 in.Hg (1016 mB)
Relative humidity99 %
Density altitude781 ft. (238 m)
Remarks Fully automated report
Automated weather observing station with precipitation discriminator
Lightning observed
Distant south
Flight conditions Instrument Meteorological Conditions
Raw dataK3T5 221115Z AUTO 00000KT 2 1/2SM BR CLR 20/20 A2999 RMK AO2 LTG DSNT S T01970196
An unhandled exception has occurred. See browser dev tools for details. Reload 🗙